sensor_id;sensor_type;location;lat;lon;timestamp;pressure;altitude;pressure_sealevel;temperature;humidity
6435;BME280;3250;42.694;23.278;2023-04-20T00:02:02;94484.91;;;11.08;74.82
6435;BME280;3250;42.694;23.278;2023-04-20T00:04:28;94488.72;;;11.12;75.26
6435;BME280;3250;42.694;23.278;2023-04-20T00:06:54;94482.22;;;11.14;75.50
6435;BME280;3250;42.694;23.278;2023-04-20T00:09:21;94481.97;;;11.16;75.54
6435;BME280;3250;42.694;23.278;2023-04-20T00:11:47;94479.69;;;11.19;74.98
6435;BME280;3250;42.694;23.278;2023-04-20T00:14:13;94456.09;;;11.13;74.85
6435;BME280;3250;42.694;23.278;2023-04-20T00:16:38;94479.47;;;11.21;74.93
6435;BME280;3250;42.694;23.278;2023-04-20T00:19:04;94476.03;;;11.20;74.86
6435;BME280;3250;42.694;23.278;2023-04-20T00:21:29;94474.22;;;11.21;74.95
6435;BME280;3250;42.694;23.278;2023-04-20T00:23:54;94472.81;;;11.18;75.89
6435;BME280;3250;42.694;23.278;2023-04-20T00:26:20;94467.56;;;11.18;75.32
6435;BME280;3250;42.694;23.278;2023-04-20T00:28:45;94476.25;;;11.19;74.90
6435;BME280;3250;42.694;23.278;2023-04-20T00:31:11;94462.97;;;11.14;75.25
6435;BME280;3250;42.694;23.278;2023-04-20T00:33:36;94472.81;;;11.18;74.99
6435;BME280;3250;42.694;23.278;2023-04-20T00:36:02;94469.97;;;11.20;75.26
6435;BME280;3250;42.694;23.278;2023-04-20T00:38:27;94472.03;;;11.18;75.08
6435;BME280;3250;42.694;23.278;2023-04-20T00:40:55;94455.38;;;11.06;75.27
6435;BME280;3250;42.694;23.278;2023-04-20T00:43:21;94449.16;;;11.00;75.72
6435;BME280;3250;42.694;23.278;2023-04-20T00:45:46;94467.06;;;11.10;75.66
6435;BME280;3250;42.694;23.278;2023-04-20T00:48:12;94465.03;;;11.12;75.90
6435;BME280;3250;42.694;23.278;2023-04-20T00:50:39;94456.53;;;11.10;75.42
6435;BME280;3250;42.694;23.278;2023-04-20T00:53:06;94464.59;;;11.15;75.34
6435;BME280;3250;42.694;23.278;2023-04-20T00:55:32;94465.59;;;11.14;74.47
6435;BME280;3250;42.694;23.278;2023-04-20T00:57:57;94459.34;;;10.96;75.60
6435;BME280;3250;42.694;23.278;2023-04-20T01:00:23;94467.25;;;10.96;75.99
6435;BME280;3250;42.694;23.278;2023-04-20T01:02:49;94460.28;;;11.02;75.62
6435;BME280;3250;42.694;23.278;2023-04-20T01:05:15;94429.72;;;10.71;76.40
6435;BME280;3250;42.694;23.278;2023-04-20T01:07:40;94460.09;;;10.85;76.37
6435;BME280;3250;42.694;23.278;2023-04-20T01:10:07;94451.25;;;10.80;76.40
6435;BME280;3250;42.694;23.278;2023-04-20T01:12:33;94456.66;;;10.85;76.32
6435;BME280;3250;42.694;23.278;2023-04-20T01:14:58;94449.13;;;10.88;76.28
6435;BME280;3250;42.694;23.278;2023-04-20T01:17:23;94456.53;;;10.80;76.99
6435;BME280;3250;42.694;23.278;2023-04-20T01:19:49;94443.44;;;10.73;76.63
6435;BME280;3250;42.694;23.278;2023-04-20T01:22:16;94441.16;;;10.77;76.66
6435;BME280;3250;42.694;23.278;2023-04-20T01:24:42;94440.28;;;10.83;76.37
6435;BME280;3250;42.694;23.278;2023-04-20T01:27:08;94445.91;;;10.86;76.36
6435;BME280;3250;42.694;23.278;2023-04-20T01:29:33;94462.78;;;10.97;76.31
6435;BME280;3250;42.694;23.278;2023-04-20T01:31:59;94450.19;;;10.99;76.83
6435;BME280;3250;42.694;23.278;2023-04-20T01:34:24;94452.59;;;11.01;76.42
6435;BME280;3250;42.694;23.278;2023-04-20T01:36:50;94425.75;;;10.80;77.01
6435;BME280;3250;42.694;23.278;2023-04-20T01:39:16;94450.00;;;10.82;76.08
6435;BME280;3250;42.694;23.278;2023-04-20T01:41:41;94440.38;;;10.76;77.24
6435;BME280;3250;42.694;23.278;2023-04-20T01:44:07;94438.44;;;10.83;77.11
6435;BME280;3250;42.694;23.278;2023-04-20T01:46:36;94436.41;;;10.85;76.47
6435;BME280;3250;42.694;23.278;2023-04-20T01:49:02;94443.94;;;10.82;77.29
6435;BME280;3250;42.694;23.278;2023-04-20T01:51:28;94436.53;;;10.90;76.73
6435;BME280;3250;42.694;23.278;2023-04-20T01:53:53;94428.50;;;10.85;76.83
6435;BME280;3250;42.694;23.278;2023-04-20T01:56:18;94438.50;;;10.95;76.47
6435;BME280;3250;42.694;23.278;2023-04-20T01:58:44;94435.72;;;10.90;76.66
6435;BME280;3250;42.694;23.278;2023-04-20T02:01:09;94438.59;;;10.88;76.52
6435;BME280;3250;42.694;23.278;2023-04-20T02:03:35;94434.34;;;10.87;76.90
6435;BME280;3250;42.694;23.278;2023-04-20T02:06:00;94431.34;;;10.84;77.00
6435;BME280;3250;42.694;23.278;2023-04-20T02:08:25;94427.78;;;10.78;77.08
6435;BME280;3250;42.694;23.278;2023-04-20T02:10:51;94436.72;;;10.77;77.21
6435;BME280;3250;42.694;23.278;2023-04-20T02:13:16;94432.25;;;10.78;77.46
6435;BME280;3250;42.694;23.278;2023-04-20T02:15:42;94429.13;;;10.69;77.38
6435;BME280;3250;42.694;23.278;2023-04-20T02:18:07;94432.19;;;10.66;77.63
6435;BME280;3250;42.694;23.278;2023-04-20T02:20:33;94431.03;;;10.62;77.93
6435;BME280;3250;42.694;23.278;2023-04-20T02:22:58;94432.84;;;10.62;78.35
6435;BME280;3250;42.694;23.278;2023-04-20T02:25:24;94427.59;;;10.62;78.32
6435;BME280;3250;42.694;23.278;2023-04-20T02:27:49;94430.16;;;10.50;78.35
6435;BME280;3250;42.694;23.278;2023-04-20T02:30:15;94431.69;;;10.57;78.43
6435;BME280;3250;42.694;23.278;2023-04-20T02:32:40;94433.06;;;10.60;78.60
6435;BME280;3250;42.694;23.278;2023-04-20T02:35:06;94433.44;;;10.64;77.99
6435;BME280;3250;42.694;23.278;2023-04-20T02:37:32;94428.84;;;10.59;78.05
6435;BME280;3250;42.694;23.278;2023-04-20T02:39:57;94432.66;;;10.63;78.29
6435;BME280;3250;42.694;23.278;2023-04-20T02:42:23;94427.81;;;10.60;78.14
6435;BME280;3250;42.694;23.278;2023-04-20T02:44:48;94431.59;;;10.64;77.95
6435;BME280;3250;42.694;23.278;2023-04-20T02:47:13;94430.00;;;10.63;78.01
6435;BME280;3250;42.694;23.278;2023-04-20T02:49:39;94428.41;;;10.62;78.29
6435;BME280;3250;42.694;23.278;2023-04-20T02:52:05;94427.38;;;10.63;78.26
6435;BME280;3250;42.694;23.278;2023-04-20T02:54:30;94432.66;;;10.63;78.57
6435;BME280;3250;42.694;23.278;2023-04-20T02:56:55;94426.31;;;10.64;78.15
6435;BME280;3250;42.694;23.278;2023-04-20T02:59:23;94431.84;;;10.63;78.76
6435;BME280;3250;42.694;23.278;2023-04-20T03:01:48;94424.06;;;10.68;78.89
6435;BME280;3250;42.694;23.278;2023-04-20T03:04:13;94422.25;;;10.68;78.56
6435;BME280;3250;42.694;23.278;2023-04-20T03:06:39;94428.41;;;10.62;78.00
6435;BME280;3250;42.694;23.278;2023-04-20T03:09:05;94430.81;;;10.64;78.47
6435;BME280;3250;42.694;23.278;2023-04-20T03:11:31;94424.88;;;10.68;78.34
6435;BME280;3250;42.694;23.278;2023-04-20T03:13:57;94431.31;;;10.72;78.42
6435;BME280;3250;42.694;23.278;2023-04-20T03:16:22;94429.25;;;10.74;78.29
6435;BME280;3250;42.694;23.278;2023-04-20T03:18:47;94429.47;;;10.73;77.99
6435;BME280;3250;42.694;23.278;2023-04-20T03:21:13;94432.69;;;10.75;77.62
6435;BME280;3250;42.694;23.278;2023-04-20T03:23:39;94433.16;;;10.72;77.58
6435;BME280;3250;42.694;23.278;2023-04-20T03:26:04;94435.31;;;10.75;77.63
6435;BME280;3250;42.694;23.278;2023-04-20T03:28:29;94436.94;;;10.76;77.27
6435;BME280;3250;42.694;23.278;2023-04-20T03:30:55;94432.84;;;10.80;77.10
6435;BME280;3250;42.694;23.278;2023-04-20T03:33:20;94441.44;;;10.87;nan
6435;BME280;3250;42.694;23.278;2023-04-20T03:35:45;94437.19;;;10.86;76.89
6435;BME280;3250;42.694;23.278;2023-04-20T03:38:11;94422.53;;;10.78;76.47
6435;BME280;3250;42.694;23.278;2023-04-20T03:40:36;94440.06;;;10.84;76.71
6435;BME280;3250;42.694;23.278;2023-04-20T03:43:02;94435.59;;;10.85;76.53
6435;BME280;3250;42.694;23.278;2023-04-20T03:45:27;94426.31;;;10.82;76.83
6435;BME280;3250;42.694;23.278;2023-04-20T03:47:52;94421.03;;;10.82;76.34
6435;BME280;3250;42.694;23.278;2023-04-20T03:50:18;94447.56;;;10.99;76.55
6435;BME280;3250;42.694;23.278;2023-04-20T03:52:43;94440.44;;;11.00;76.16
6435;BME280;3250;42.694;23.278;2023-04-20T03:55:09;94438.41;;;11.02;76.04
6435;BME280;3250;42.694;23.278;2023-04-20T03:57:34;94445.72;;;11.00;76.40
6435;BME280;3250;42.694;23.278;2023-04-20T04:00:00;94440.44;;;11.00;76.10
6435;BME280;3250;42.694;23.278;2023-04-20T04:02:25;94428.19;;;10.93;76.51
6435;BME280;3250;42.694;23.278;2023-04-20T04:04:51;94437.50;;;11.08;76.54
6435;BME280;3250;42.694;23.278;2023-04-20T04:07:16;94439.66;;;10.99;76.38
6435;BME280;3250;42.694;23.278;2023-04-20T04:09:41;94448.84;;;11.08;76.54
6435;BME280;3250;42.694;23.278;2023-04-20T04:12:07;94445.19;;;11.09;76.25
6435;BME280;3250;42.694;23.278;2023-04-20T04:14:33;94454.47;;;11.12;75.99
6435;BME280;3250;42.694;23.278;2023-04-20T04:16:59;94457.34;;;11.10;75.78
6435;BME280;3250;42.694;23.278;2023-04-20T04:19:24;94437.59;;;11.01;75.84
6435;BME280;3250;42.694;23.278;2023-04-20T04:21:50;94453.19;;;11.03;76.21
6435;BME280;3250;42.694;23.278;2023-04-20T04:24:15;94450.69;;;11.08;76.23
6435;BME280;3250;42.694;23.278;2023-04-20T04:26:41;94453.09;;;11.09;76.25
6435;BME280;3250;42.694;23.278;2023-04-20T04:29:07;94412.81;;;10.90;76.16
6435;BME280;3250;42.694;23.278;2023-04-20T04:31:34;94448.31;;;11.18;75.69
6435;BME280;3250;42.694;23.278;2023-04-20T04:34:00;94432.22;;;11.08;75.25
6435;BME280;3250;42.694;23.278;2023-04-20T04:36:25;94456.78;;;11.20;75.14
6435;BME280;3250;42.694;23.278;2023-04-20T04:38:51;94432.22;;;11.08;74.48
6435;BME280;3250;42.694;23.278;2023-04-20T04:41:17;94458.63;;;11.19;75.04
6435;BME280;3250;42.694;23.278;2023-04-20T04:43:43;94465.72;;;11.19;75.28
6435;BME280;3250;42.694;23.278;2023-04-20T04:46:10;94462.78;;;11.27;75.25
6435;BME280;3250;42.694;23.278;2023-04-20T04:48:39;94466.91;;;11.34;75.41
6435;BME280;3250;42.694;23.278;2023-04-20T04:51:08;94466.03;;;11.41;74.31
6435;BME280;3250;42.694;23.278;2023-04-20T04:53:34;94456.97;;;11.37;74.66
6435;BME280;3250;42.694;23.278;2023-04-20T04:55:59;94455.72;;;11.39;74.68
6435;BME280;3250;42.694;23.278;2023-04-20T04:58:25;94468.91;;;11.51;75.17
6435;BME280;3250;42.694;23.278;2023-04-20T05:00:50;94481.53;;;11.60;74.74
6435;BME280;3250;42.694;23.278;2023-04-20T05:03:15;94474.06;;;11.46;73.22
6435;BME280;3250;42.694;23.278;2023-04-20T05:05:41;94483.00;;;11.45;74.13
6435;BME280;3250;42.694;23.278;2023-04-20T05:08:07;94476.25;;;11.49;74.42
6435;BME280;3250;42.694;23.278;2023-04-20T05:10:32;94490.03;;;11.62;74.90
6435;BME280;3250;42.694;23.278;2023-04-20T05:12:58;94457.34;;;11.52;73.92
6435;BME280;3250;42.694;23.278;2023-04-20T05:15:24;94487.66;;;11.72;73.55
6435;BME280;3250;42.694;23.278;2023-04-20T05:17:50;94487.66;;;11.72;73.10
6435;BME280;3250;42.694;23.278;2023-04-20T05:20:16;94484.78;;;11.74;73.33
6435;BME280;3250;42.694;23.278;2023-04-20T05:22:41;94482.00;;;11.69;73.64
6435;BME280;3250;42.694;23.278;2023-04-20T05:25:07;94493.53;;;11.75;73.49
6435;BME280;3250;42.694;23.278;2023-04-20T05:27:33;94488.81;;;11.77;73.96
6435;BME280;3250;42.694;23.278;2023-04-20T05:29:58;94481.97;;;11.76;73.62
6435;BME280;3250;42.694;23.278;2023-04-20T05:32:24;94501.22;;;11.88;72.81
6435;BME280;3250;42.694;23.278;2023-04-20T05:34:49;94493.31;;;11.88;73.05
6435;BME280;3250;42.694;23.278;2023-04-20T05:37:15;94491.47;;;11.88;73.78
6435;BME280;3250;42.694;23.278;2023-04-20T05:39:41;94500.56;;;11.92;73.40
6435;BME280;3250;42.694;23.278;2023-04-20T05:42:06;94501.91;;;11.95;72.92
6435;BME280;3250;42.694;23.278;2023-04-20T05:44:32;94498.84;;;11.98;73.67
6435;BME280;3250;42.694;23.278;2023-04-20T05:46:58;94496.09;;;12.04;73.07
6435;BME280;3250;42.694;23.278;2023-04-20T05:49:24;94499.09;;;12.08;73.25
6435;BME280;3250;42.694;23.278;2023-04-20T05:51:50;94508.03;;;12.07;73.50
6435;BME280;3250;42.694;23.278;2023-04-20T05:54:15;94477.38;;;11.94;74.15
6435;BME280;3250;42.694;23.278;2023-04-20T05:56:41;94498.41;;;12.01;74.71
6435;BME280;3250;42.694;23.278;2023-04-20T05:59:07;94485.88;;;11.96;75.28
6435;BME280;3250;42.694;23.278;2023-04-20T06:01:32;94486.69;;;11.97;74.86
6435;BME280;3250;42.694;23.278;2023-04-20T06:03:58;94486.91;;;11.95;75.34
6435;BME280;3250;42.694;23.278;2023-04-20T06:06:23;94468.66;;;11.82;75.81
6435;BME280;3250;42.694;23.278;2023-04-20T06:08:49;94494.00;;;11.95;75.91
6435;BME280;3250;42.694;23.278;2023-04-20T06:11:15;94490.34;;;11.96;76.40
6435;BME280;3250;42.694;23.278;2023-04-20T06:13:41;94494.16;;;12.00;76.51
6435;BME280;3250;42.694;23.278;2023-04-20T06:16:06;94500.09;;;12.07;76.66
6435;BME280;3250;42.694;23.278;2023-04-20T06:18:34;94480.38;;;11.98;nan
6435;BME280;3250;42.694;23.278;2023-04-20T06:21:00;94477.50;;;11.99;75.93
6435;BME280;3250;42.694;23.278;2023-04-20T06:23:26;94498.13;;;12.02;76.04
6435;BME280;3250;42.694;23.278;2023-04-20T06:25:51;94498.94;;;12.03;76.26
6435;BME280;3250;42.694;23.278;2023-04-20T06:28:17;94494.03;;;12.06;76.39
6435;BME280;3250;42.694;23.278;2023-04-20T06:30:42;94508.38;;;12.11;76.51
6435;BME280;3250;42.694;23.278;2023-04-20T06:33:07;94504.00;;;12.16;77.42
6435;BME280;3250;42.694;23.278;2023-04-20T06:35:33;94485.19;;;12.01;75.56
6435;BME280;3250;42.694;23.278;2023-04-20T06:37:58;94508.72;;;12.14;76.18
6435;BME280;3250;42.694;23.278;2023-04-20T06:40:27;94508.03;;;12.19;76.13
6435;BME280;3250;42.694;23.278;2023-04-20T06:42:53;94513.66;;;12.22;75.75
6435;BME280;3250;42.694;23.278;2023-04-20T06:45:18;94516.06;;;12.24;76.14
6435;BME280;3250;42.694;23.278;2023-04-20T06:47:44;94519.75;;;12.34;76.70
6435;BME280;3250;42.694;23.278;2023-04-20T06:50:10;94498.16;;;12.26;76.60
6435;BME280;3250;42.694;23.278;2023-04-20T06:52:36;94528.56;;;12.40;76.87
6435;BME280;3250;42.694;23.278;2023-04-20T06:55:02;94522.72;;;12.38;76.57
6435;BME280;3250;42.694;23.278;2023-04-20T06:57:28;94524.56;;;12.26;76.88
6435;BME280;3250;42.694;23.278;2023-04-20T06:59:53;94525.22;;;12.21;77.22
6435;BME280;3250;42.694;23.278;2023-04-20T07:02:18;94495.75;;;12.01;77.97
6435;BME280;3250;42.694;23.278;2023-04-20T07:04:44;94524.69;;;12.19;78.83
6435;BME280;3250;42.694;23.278;2023-04-20T07:07:09;94468.78;;;11.87;78.81
6435;BME280;3250;42.694;23.278;2023-04-20T07:09:35;94529.34;;;12.29;78.74
6435;BME280;3250;42.694;23.278;2023-04-20T07:12:01;94531.31;;;12.33;78.46
6435;BME280;3250;42.694;23.278;2023-04-20T07:14:27;94522.03;;;12.31;79.73
6435;BME280;3250;42.694;23.278;2023-04-20T07:16:53;94530.41;;;12.39;79.39
6435;BME280;3250;42.694;23.278;2023-04-20T07:19:18;94515.38;;;12.40;79.53
6435;BME280;3250;42.694;23.278;2023-04-20T07:21:44;94525.81;;;12.58;78.30
6435;BME280;3250;42.694;23.278;2023-04-20T07:24:10;94514.88;;;12.66;77.93
6435;BME280;3250;42.694;23.278;2023-04-20T07:26:35;94526.91;;;12.97;78.18
6435;BME280;3250;42.694;23.278;2023-04-20T07:29:01;94521.91;;;13.24;78.16
6435;BME280;3250;42.694;23.278;2023-04-20T07:31:26;94523.97;;;13.50;77.25
6435;BME280;3250;42.694;23.278;2023-04-20T07:33:52;94525.16;;;13.71;75.42
6435;BME280;3250;42.694;23.278;2023-04-20T07:36:17;94524.72;;;13.91;74.98
6435;BME280;3250;42.694;23.278;2023-04-20T07:38:44;94513.81;;;14.04;73.51
6435;BME280;3250;42.694;23.278;2023-04-20T07:41:09;94523.91;;;14.24;72.83
6435;BME280;3250;42.694;23.278;2023-04-20T07:43:35;94528.88;;;14.37;70.65
6435;BME280;3250;42.694;23.278;2023-04-20T07:46:01;94529.00;;;14.42;69.01
6435;BME280;3250;42.694;23.278;2023-04-20T07:48:26;94536.50;;;14.67;69.17
6435;BME280;3250;42.694;23.278;2023-04-20T07:50:52;94518.78;;;14.89;68.49
6435;BME280;3250;42.694;23.278;2023-04-20T07:53:17;94534.28;;;15.19;67.99
6435;BME280;3250;42.694;23.278;2023-04-20T07:55:42;94527.81;;;15.54;68.55
6435;BME280;3250;42.694;23.278;2023-04-20T07:58:08;94535.53;;;15.82;65.50
6435;BME280;3250;42.694;23.278;2023-04-20T08:00:34;94527.28;;;16.10;67.50
6435;BME280;3250;42.694;23.278;2023-04-20T08:02:59;94527.78;;;16.44;65.63
6435;BME280;3250;42.694;23.278;2023-04-20T08:05:25;94535.94;;;16.65;63.54
6435;BME280;3250;42.694;23.278;2023-04-20T08:07:50;94534.91;;;16.66;60.96
6435;BME280;3250;42.694;23.278;2023-04-20T08:10:16;94536.66;;;16.55;61.10
6435;BME280;3250;42.694;23.278;2023-04-20T08:12:41;94542.88;;;16.34;62.21
6435;BME280;3250;42.694;23.278;2023-04-20T08:15:07;94530.81;;;15.89;62.08
6435;BME280;3250;42.694;23.278;2023-04-20T08:17:33;94535.91;;;15.69;63.76
6435;BME280;3250;42.694;23.278;2023-04-20T08:19:58;94537.50;;;15.48;63.87
6435;BME280;3250;42.694;23.278;2023-04-20T08:22:24;94537.78;;;15.25;63.93
6435;BME280;3250;42.694;23.278;2023-04-20T08:24:54;94536.91;;;14.97;65.07
6435;BME280;3250;42.694;23.278;2023-04-20T08:27:19;94541.31;;;14.70;65.97
6435;BME280;3250;42.694;23.278;2023-04-20T08:29:45;94533.94;;;14.55;66.82
6435;BME280;3250;42.694;23.278;2023-04-20T08:32:10;94544.78;;;14.54;66.27
6435;BME280;3250;42.694;23.278;2023-04-20T08:34:37;94544.38;;;14.45;66.30
6435;BME280;3250;42.694;23.278;2023-04-20T08:37:02;94538.94;;;14.35;67.39
6435;BME280;3250;42.694;23.278;2023-04-20T08:39:28;94536.59;;;14.39;67.57
6435;BME280;3250;42.694;23.278;2023-04-20T08:41:55;94535.91;;;14.43;66.67
6435;BME280;3250;42.694;23.278;2023-04-20T08:44:21;94542.25;;;14.42;67.07
6435;BME280;3250;42.694;23.278;2023-04-20T08:46:47;94539.03;;;14.40;66.40
6435;BME280;3250;42.694;23.278;2023-04-20T08:49:18;94538.78;;;14.42;67.59
6435;BME280;3250;42.694;23.278;2023-04-20T08:51:44;94544.09;;;14.42;66.03
6435;BME280;3250;42.694;23.278;2023-04-20T08:54:11;94537.56;;;14.32;66.92
6435;BME280;3250;42.694;23.278;2023-04-20T08:56:38;94537.72;;;14.26;67.04
6435;BME280;3250;42.694;23.278;2023-04-20T08:59:05;94534.41;;;14.19;67.57
6435;BME280;3250;42.694;23.278;2023-04-20T09:01:35;94540.09;;;14.11;67.65
6435;BME280;3250;42.694;23.278;2023-04-20T09:04:00;94538.34;;;14.00;67.67
6435;BME280;3250;42.694;23.278;2023-04-20T09:06:26;94534.41;;;14.02;68.53
6435;BME280;3250;42.694;23.278;2023-04-20T09:08:52;94538.09;;;14.01;67.05
6435;BME280;3250;42.694;23.278;2023-04-20T09:11:26;94536.97;;;13.97;67.42
6435;BME280;3250;42.694;23.278;2023-04-20T09:14:02;94542.03;;;13.98;68.47
6435;BME280;3250;42.694;23.278;2023-04-20T09:16:29;94540.31;;;13.92;67.47
6435;BME280;3250;42.694;23.278;2023-04-20T09:18:56;94536.56;;;13.88;67.69
6435;BME280;3250;42.694;23.278;2023-04-20T09:21:23;94536.75;;;13.98;68.31
6435;BME280;3250;42.694;23.278;2023-04-20T09:24:01;94527.78;;;14.16;69.13
6435;BME280;3250;42.694;23.278;2023-04-20T09:26:30;94504.34;;;14.25;68.00
6435;BME280;3250;42.694;23.278;2023-04-20T09:28:57;94528.22;;;14.63;68.09
6435;BME280;3250;42.694;23.278;2023-04-20T09:31:22;94514.56;;;14.71;66.35
6435;BME280;3250;42.694;23.278;2023-04-20T09:33:58;94522.03;;;14.96;66.83
6435;BME280;3250;42.694;23.278;2023-04-20T09:36:34;94516.50;;;14.98;65.20
6435;BME280;3250;42.694;23.278;2023-04-20T09:39:07;94527.47;;;14.85;64.50
6435;BME280;3250;42.694;23.278;2023-04-20T09:41:34;94507.06;;;14.85;65.18
6435;BME280;3250;42.694;23.278;2023-04-20T09:44:00;94523.13;;;14.95;64.74
6435;BME280;3250;42.694;23.278;2023-04-20T09:46:30;94521.88;;;15.03;66.16
6435;BME280;3250;42.694;23.278;2023-04-20T09:48:58;94519.97;;;15.20;64.85
6435;BME280;3250;42.694;23.278;2023-04-20T09:51:28;94519.00;;;15.31;65.30
6435;BME280;3250;42.694;23.278;2023-04-20T09:53:58;94519.50;;;15.50;64.34
6435;BME280;3250;42.694;23.278;2023-04-20T09:56:24;94520.69;;;15.37;63.04
6435;BME280;3250;42.694;23.278;2023-04-20T09:58:51;94493.31;;;15.10;64.67
6435;BME280;3250;42.694;23.278;2023-04-20T10:01:17;94485.63;;;15.30;65.83
6435;BME280;3250;42.694;23.278;2023-04-20T10:03:43;94510.22;;;15.74;67.03
6435;BME280;3250;42.694;23.278;2023-04-20T10:06:34;94498.19;;;15.94;62.65
6435;BME280;3250;42.694;23.278;2023-04-20T10:09:04;94491.13;;;16.04;62.43
6435;BME280;3250;42.694;23.278;2023-04-20T10:11:30;94506.94;;;16.26;62.27
6435;BME280;3250;42.694;23.278;2023-04-20T10:13:57;94505.06;;;16.21;62.20
6435;BME280;3250;42.694;23.278;2023-04-20T10:16:23;94502.22;;;16.33;62.04
6435;BME280;3250;42.694;23.278;2023-04-20T10:18:59;94499.38;;;16.45;61.04
6435;BME280;3250;42.694;23.278;2023-04-20T10:21:27;94497.00;;;16.48;60.84
6435;BME280;3250;42.694;23.278;2023-04-20T10:23:53;94493.56;;;16.48;60.41
6435;BME280;3250;42.694;23.278;2023-04-20T10:26:19;94494.47;;;16.64;61.90
6435;BME280;3250;42.694;23.278;2023-04-20T10:28:45;94474.44;;;16.51;59.42
6435;BME280;3250;42.694;23.278;2023-04-20T10:31:11;94497.88;;;16.59;58.50
6435;BME280;3250;42.694;23.278;2023-04-20T10:33:51;94503.13;;;16.49;59.24
6435;BME280;3250;42.694;23.278;2023-04-20T10:36:28;94471.22;;;16.07;58.51
6435;BME280;3250;42.694;23.278;2023-04-20T10:38:54;94492.09;;;16.30;59.54
6435;BME280;3250;42.694;23.278;2023-04-20T10:41:20;94479.94;;;16.34;60.41
6435;BME280;3250;42.694;23.278;2023-04-20T10:43:49;94487.13;;;16.44;60.72
6435;BME280;3250;42.694;23.278;2023-04-20T10:46:22;94485.09;;;16.51;61.31
6435;BME280;3250;42.694;23.278;2023-04-20T10:48:55;94480.59;;;16.56;61.57
6435;BME280;3250;42.694;23.278;2023-04-20T10:51:21;94488.16;;;16.75;60.59
6435;BME280;3250;42.694;23.278;2023-04-20T10:54:00;94489.84;;;16.96;62.19
6435;BME280;3250;42.694;23.278;2023-04-20T10:59:11;94493.16;;;17.18;61.03
6435;BME280;3250;42.694;23.278;2023-04-20T11:01:37;94486.53;;;17.26;59.17
6435;BME280;3250;42.694;23.278;2023-04-20T11:04:03;94484.41;;;17.33;59.38
6435;BME280;3250;42.694;23.278;2023-04-20T11:06:29;94465.72;;;17.13;57.70
6435;BME280;3250;42.694;23.278;2023-04-20T11:08:56;94472.13;;;17.22;59.29
6435;BME280;3250;42.694;23.278;2023-04-20T11:11:26;94479.13;;;17.38;59.64
6435;BME280;3250;42.694;23.278;2023-04-20T11:14:04;94476.34;;;17.03;58.70
6435;BME280;3250;42.694;23.278;2023-04-20T11:16:31;94469.63;;;16.85;60.06
6435;BME280;3250;42.694;23.278;2023-04-20T11:18:56;94450.25;;;16.94;60.97
6435;BME280;3250;42.694;23.278;2023-04-20T11:21:22;94454.59;;;17.21;60.36
6435;BME280;3250;42.694;23.278;2023-04-20T11:23:48;94439.75;;;17.50;59.52
6435;BME280;3250;42.694;23.278;2023-04-20T11:26:14;94454.72;;;17.82;57.74
6435;BME280;3250;42.694;23.278;2023-04-20T11:28:55;94462.44;;;17.93;58.07
6435;BME280;3250;42.694;23.278;2023-04-20T11:31:20;94463.53;;;18.02;56.44
6435;BME280;3250;42.694;23.278;2023-04-20T11:33:45;94459.53;;;18.20;56.77
6435;BME280;3250;42.694;23.278;2023-04-20T11:36:21;94452.31;;;18.41;56.34
6435;BME280;3250;42.694;23.278;2023-04-20T11:38:47;94450.44;;;18.46;56.35
6435;BME280;3250;42.694;23.278;2023-04-20T11:41:14;94432.06;;;18.35;53.52
6435;BME280;3250;42.694;23.278;2023-04-20T11:43:39;94448.31;;;18.38;52.46
6435;BME280;3250;42.694;23.278;2023-04-20T11:46:12;94450.72;;;18.20;54.04
6435;BME280;3250;42.694;23.278;2023-04-20T11:48:39;94438.75;;;18.07;53.98
6435;BME280;3250;42.694;23.278;2023-04-20T11:51:04;94420.63;;;17.84;54.56
6435;BME280;3250;42.694;23.278;2023-04-20T11:53:31;94435.03;;;18.03;55.21
6435;BME280;3250;42.694;23.278;2023-04-20T11:55:56;94439.00;;;18.10;55.24
6435;BME280;3250;42.694;23.278;2023-04-20T11:58:21;94441.41;;;18.02;53.73
6435;BME280;3250;42.694;23.278;2023-04-20T12:00:47;94439.56;;;17.72;54.30
6435;BME280;3250;42.694;23.278;2023-04-20T12:03:12;94432.88;;;17.64;55.79
6435;BME280;3250;42.694;23.278;2023-04-20T12:05:37;94435.78;;;17.53;55.97
6435;BME280;3250;42.694;23.278;2023-04-20T12:08:03;94454.59;;;17.26;55.89
6435;BME280;3250;42.694;23.278;2023-04-20T12:10:28;94458.09;;;16.69;57.65
6435;BME280;3250;42.694;23.278;2023-04-20T12:12:54;94458.34;;;16.26;60.57
6435;BME280;3250;42.694;23.278;2023-04-20T12:15:20;94449.34;;;15.95;62.52
6435;BME280;3250;42.694;23.278;2023-04-20T12:17:46;94443.63;;;15.76;62.96
6435;BME280;3250;42.694;23.278;2023-04-20T12:20:12;94445.56;;;15.54;63.60
6435;BME280;3250;42.694;23.278;2023-04-20T12:22:37;94437.94;;;15.40;64.14
6435;BME280;3250;42.694;23.278;2023-04-20T12:25:04;94446.47;;;15.42;63.67
6435;BME280;3250;42.694;23.278;2023-04-20T12:27:29;94443.66;;;15.27;64.47
6435;BME280;3250;42.694;23.278;2023-04-20T12:29:55;94429.91;;;15.30;65.94
6435;BME280;3250;42.694;23.278;2023-04-20T12:32:22;94431.09;;;15.44;63.25
6435;BME280;3250;42.694;23.278;2023-04-20T12:34:47;94429.03;;;15.52;64.15
6435;BME280;3250;42.694;23.278;2023-04-20T12:37:12;94429.97;;;15.62;63.97
6435;BME280;3250;42.694;23.278;2023-04-20T12:39:38;94425.59;;;15.78;63.69
6435;BME280;3250;42.694;23.278;2023-04-20T12:42:04;94423.09;;;15.98;61.74
6435;BME280;3250;42.694;23.278;2023-04-20T12:44:29;94416.91;;;16.25;62.57
6435;BME280;3250;42.694;23.278;2023-04-20T12:46:55;94419.22;;;16.58;61.71
6435;BME280;3250;42.694;23.278;2023-04-20T12:49:20;94420.19;;;16.99;60.99
6435;BME280;3250;42.694;23.278;2023-04-20T12:51:46;94417.63;;;17.40;60.58
6435;BME280;3250;42.694;23.278;2023-04-20T12:54:11;94408.91;;;17.75;58.54
6435;BME280;3250;42.694;23.278;2023-04-20T12:56:36;94413.97;;;17.91;56.98
6435;BME280;3250;42.694;23.278;2023-04-20T12:59:02;94410.50;;;17.91;56.42
6435;BME280;3250;42.694;23.278;2023-04-20T13:01:27;94378.03;;;17.73;55.62
6435;BME280;3250;42.694;23.278;2023-04-20T13:03:53;94397.22;;;17.86;55.88
6435;BME280;3250;42.694;23.278;2023-04-20T13:06:18;94410.78;;;17.94;56.06
6435;BME280;3250;42.694;23.278;2023-04-20T13:08:44;94418.53;;;17.96;56.32